createdAt,value
2022-12-07T00:00:01.637Z,21.20
2022-12-07T00:00:11.289Z,20.90
2022-12-07T00:00:21.316Z,20.30
2022-12-07T00:00:32.113Z,20.50
2022-12-07T00:00:42.113Z,20.10
2022-12-07T00:00:51.290Z,20.50
2022-12-07T00:01:01.324Z,20.40
2022-12-07T00:01:11.295Z,20.40
2022-12-07T00:01:21.453Z,20.20
2022-12-07T00:01:31.302Z,20.50
2022-12-07T00:01:41.442Z,20.60
2022-12-07T00:01:51.420Z,20.90
2022-12-07T00:02:01.375Z,19.30
2022-12-07T00:02:11.334Z,19.00
2022-12-07T00:02:21.339Z,18.20
2022-12-07T00:02:31.356Z,19.00
2022-12-07T00:02:41.400Z,19.00
2022-12-07T00:02:51.360Z,19.50
2022-12-07T00:03:01.333Z,18.90
2022-12-07T00:03:11.328Z,17.60
2022-12-07T00:03:21.324Z,17.50
2022-12-07T00:03:31.345Z,18.00
2022-12-07T00:03:41.361Z,19.00
2022-12-07T00:03:52.248Z,19.20
2022-12-07T00:04:01.272Z,19.30
2022-12-07T00:04:11.272Z,18.90
2022-12-07T00:04:21.267Z,18.80
2022-12-07T00:04:31.269Z,18.30
2022-12-07T00:04:42.355Z,18.30
2022-12-07T00:04:51.258Z,17.80
2022-12-07T00:05:01.286Z,18.10
2022-12-07T00:05:11.316Z,18.80
2022-12-07T00:05:21.250Z,19.20
2022-12-07T00:05:31.300Z,19.20
2022-12-07T00:05:41.282Z,19.00
2022-12-07T00:05:51.250Z,18.90
2022-12-07T00:06:01.297Z,18.80
2022-12-07T00:06:11.252Z,19.30
2022-12-07T00:06:21.279Z,19.10
2022-12-07T00:06:31.262Z,19.50
2022-12-07T00:06:41.298Z,19.50
2022-12-07T00:06:51.269Z,20.00
2022-12-07T00:07:01.256Z,18.90
2022-12-07T00:07:11.255Z,17.90
2022-12-07T00:07:26.310Z,17.60
2022-12-07T00:07:31.320Z,17.80
2022-12-07T00:07:41.318Z,17.20
2022-12-07T00:07:51.342Z,17.40
2022-12-07T00:08:01.308Z,17.10
2022-12-07T00:08:11.377Z,17.60
2022-12-07T00:08:21.334Z,16.60
2022-12-07T00:08:31.266Z,16.80
2022-12-07T00:08:41.243Z,17.50
2022-12-07T00:08:52.110Z,18.20
2022-12-07T00:09:01.233Z,18.00
2022-12-07T00:09:12.165Z,18.70
2022-12-07T00:09:21.241Z,19.40
2022-12-07T00:09:31.255Z,19.90
2022-12-07T00:09:41.247Z,19.00
2022-12-07T00:09:51.242Z,18.50
2022-12-07T00:10:01.602Z,18.50
2022-12-07T00:10:11.275Z,18.00
2022-12-07T00:10:21.375Z,18.10
2022-12-07T00:10:31.232Z,18.90
2022-12-07T00:10:41.266Z,18.90
2022-12-07T00:10:52.113Z,18.10
2022-12-07T00:11:01.257Z,16.60
2022-12-07T00:11:11.321Z,16.50
2022-12-07T00:11:21.228Z,17.30
2022-12-07T00:11:31.278Z,17.60
2022-12-07T00:11:42.276Z,17.40
2022-12-07T00:11:51.223Z,16.70
2022-12-07T00:12:01.227Z,16.50
2022-12-07T00:12:11.232Z,16.60
2022-12-07T00:12:21.220Z,17.00
2022-12-07T00:12:32.116Z,17.50
2022-12-07T00:12:41.226Z,17.90
2022-12-07T00:12:52.157Z,18.10
2022-12-07T00:13:01.377Z,18.40
2022-12-07T00:13:11.217Z,18.40
2022-12-07T00:13:21.217Z,18.00
2022-12-07T00:13:31.240Z,17.20
2022-12-07T00:13:41.215Z,16.40
2022-12-07T00:13:51.234Z,16.60
2022-12-07T00:14:01.229Z,17.60
2022-12-07T00:14:11.269Z,17.60
2022-12-07T00:14:21.233Z,17.50
2022-12-07T00:14:31.336Z,17.00
2022-12-07T00:14:41.214Z,16.90
2022-12-07T00:14:51.240Z,16.60
2022-12-07T00:15:01.234Z,17.30
2022-12-07T00:15:11.218Z,17.90
2022-12-07T00:15:21.221Z,18.80
2022-12-07T00:15:32.159Z,18.40
2022-12-07T00:15:41.224Z,18.50
2022-12-07T00:15:52.133Z,17.70
2022-12-07T00:16:01.294Z,17.20
2022-12-07T00:16:11.287Z,17.00
2022-12-07T00:16:22.217Z,16.60
2022-12-07T00:16:31.357Z,16.70
2022-12-07T00:16:41.269Z,17.70
2022-12-07T00:16:51.276Z,18.20
2022-12-07T00:17:01.313Z,17.50
2022-12-07T00:17:11.219Z,16.20
2022-12-07T00:17:21.353Z,15.70
2022-12-07T00:17:31.232Z,15.90
2022-12-07T00:17:41.212Z,16.40
2022-12-07T00:17:51.219Z,16.50
2022-12-07T00:18:01.201Z,16.40
2022-12-07T00:18:11.401Z,16.80
2022-12-07T00:18:22.155Z,16.80
2022-12-07T00:18:31.198Z,17.30
2022-12-07T00:18:42.126Z,17.00
2022-12-07T00:18:51.238Z,17.90
2022-12-07T00:19:01.200Z,18.10
2022-12-07T00:19:11.221Z,17.60
2022-12-07T00:19:21.245Z,17.30
2022-12-07T00:19:32.137Z,17.30
2022-12-07T00:19:42.139Z,17.40
2022-12-07T00:19:51.190Z,17.70
2022-12-07T00:20:01.734Z,17.50
2022-12-07T00:20:11.203Z,17.00
2022-12-07T00:20:21.269Z,16.50
2022-12-07T00:20:31.208Z,16.30
2022-12-07T00:20:41.184Z,16.80
2022-12-07T00:20:51.186Z,16.50
2022-12-07T00:21:01.200Z,16.90
2022-12-07T00:21:11.267Z,16.80
2022-12-07T00:21:21.205Z,17.20
2022-12-07T00:21:31.293Z,16.20
2022-12-07T00:21:41.210Z,16.20
2022-12-07T00:21:51.190Z,16.90
2022-12-07T00:22:01.188Z,17.40
2022-12-07T00:22:11.181Z,17.00
2022-12-07T00:22:21.199Z,17.50
2022-12-07T00:22:31.194Z,17.50
2022-12-07T00:22:41.238Z,18.40
2022-12-07T00:22:51.230Z,17.60
2022-12-07T00:23:01.196Z,17.50
2022-12-07T00:23:11.181Z,17.30
2022-12-07T00:23:21.238Z,17.60
2022-12-07T00:23:31.189Z,17.60
2022-12-07T00:23:41.174Z,17.60
2022-12-07T00:23:51.175Z,17.70
2022-12-07T00:24:01.229Z,17.60
2022-12-07T00:24:11.188Z,17.40
2022-12-07T00:24:21.287Z,17.80
2022-12-07T00:24:31.175Z,18.10
2022-12-07T00:24:41.181Z,18.00
2022-12-07T00:24:52.134Z,17.50
2022-12-07T00:25:01.178Z,17.60
2022-12-07T00:25:11.181Z,17.30
2022-12-07T00:25:21.180Z,16.60
2022-12-07T00:25:31.210Z,16.50
2022-12-07T00:25:41.249Z,16.70
2022-12-07T00:25:51.184Z,17.10
2022-12-07T00:26:01.331Z,17.30
2022-12-07T00:26:14.120Z,17.40
2022-12-07T00:26:21.179Z,18.80
2022-12-07T00:26:31.165Z,19.20
2022-12-07T00:26:41.163Z,19.30
2022-12-07T00:26:51.190Z,18.20
2022-12-07T00:27:01.213Z,17.40
2022-12-07T00:27:11.180Z,17.90
2022-12-07T00:27:21.179Z,17.50
2022-12-07T00:27:31.170Z,17.50
2022-12-07T00:27:41.162Z,17.00
2022-12-07T00:27:51.187Z,17.00
2022-12-07T00:28:01.162Z,17.60
2022-12-07T00:28:11.173Z,17.20
2022-12-07T00:28:21.152Z,17.20
2022-12-07T00:28:32.148Z,16.80
2022-12-07T00:28:41.182Z,17.60
2022-12-07T00:28:51.154Z,18.20
2022-12-07T00:29:01.168Z,18.20
2022-12-07T00:29:11.165Z,17.80
2022-12-07T00:29:21.206Z,17.20
2022-12-07T00:29:32.117Z,17.20
2022-12-07T00:29:41.173Z,18.00
2022-12-07T00:29:54.187Z,17.60
2022-12-07T00:30:02.465Z,17.90
2022-12-07T00:30:11.180Z,17.20
2022-12-07T00:30:21.147Z,17.60
2022-12-07T00:30:31.154Z,17.90
2022-12-07T00:30:41.194Z,18.60
2022-12-07T00:30:51.210Z,18.40
2022-12-07T00:31:01.150Z,17.80
2022-12-07T00:31:11.186Z,17.10
2022-12-07T00:31:22.143Z,17.10
2022-12-07T00:31:31.251Z,17.60
2022-12-07T00:31:41.195Z,17.60
2022-12-07T00:31:51.301Z,17.80
2022-12-07T00:32:02.289Z,17.90
2022-12-07T00:32:11.251Z,17.70
2022-12-07T00:32:21.229Z,18.50
2022-12-07T00:32:31.167Z,18.70
2022-12-07T00:32:41.205Z,19.00
2022-12-07T00:32:51.142Z,18.40
2022-12-07T00:33:01.168Z,17.80
2022-12-07T00:33:11.215Z,17.80
2022-12-07T00:33:21.250Z,17.30
2022-12-07T00:33:31.157Z,18.20
2022-12-07T00:33:41.212Z,17.90
2022-12-07T00:33:51.132Z,18.50
2022-12-07T00:34:01.170Z,18.00
2022-12-07T00:34:11.136Z,17.50
2022-12-07T00:34:21.151Z,17.30
2022-12-07T00:34:31.176Z,17.20
2022-12-07T00:34:41.127Z,17.40
2022-12-07T00:34:51.152Z,17.80
2022-12-07T00:35:01.126Z,17.70
2022-12-07T00:35:11.130Z,18.20
2022-12-07T00:35:21.139Z,18.10
2022-12-07T00:35:31.206Z,17.60
2022-12-07T00:35:41.135Z,17.30
2022-12-07T00:35:51.145Z,16.90
2022-12-07T00:36:01.132Z,17.60
2022-12-07T00:36:11.123Z,17.20
2022-12-07T00:36:26.387Z,17.90
2022-12-07T00:36:31.150Z,18.00
2022-12-07T00:36:41.149Z,18.60
2022-12-07T00:36:52.215Z,18.10
2022-12-07T00:37:01.127Z,17.70
2022-12-07T00:37:12.156Z,18.10
2022-12-07T00:37:21.150Z,19.10
2022-12-07T00:37:31.120Z,19.50
2022-12-07T00:37:43.627Z,19.20
2022-12-07T00:37:51.240Z,18.20
2022-12-07T00:38:01.119Z,18.60
2022-12-07T00:38:11.143Z,19.30
2022-12-07T00:38:21.133Z,19.60
2022-12-07T00:38:31.117Z,18.00
2022-12-07T00:38:41.124Z,17.10
2022-12-07T00:38:51.190Z,16.70
2022-12-07T00:39:01.150Z,16.90
2022-12-07T00:39:11.124Z,17.20
2022-12-07T00:39:21.116Z,16.90
2022-12-07T00:39:31.130Z,17.40
2022-12-07T00:39:41.249Z,17.60
2022-12-07T00:39:51.115Z,17.80
2022-12-07T00:40:01.687Z,17.60
2022-12-07T00:40:11.132Z,18.00
2022-12-07T00:40:21.102Z,17.60
2022-12-07T00:40:31.115Z,17.50
2022-12-07T00:40:41.120Z,17.70
2022-12-07T00:40:51.204Z,18.10
2022-12-07T00:41:01.621Z,18.50
2022-12-07T00:41:11.112Z,18.50
2022-12-07T00:41:21.112Z,18.00
2022-12-07T00:41:31.107Z,18.10
2022-12-07T00:41:41.097Z,17.50
2022-12-07T00:41:51.613Z,19.00
2022-12-07T00:42:01.121Z,18.60
2022-12-07T00:42:11.097Z,19.00
2022-12-07T00:42:21.114Z,18.30
2022-12-07T00:42:31.237Z,18.20
2022-12-07T00:42:41.100Z,17.80
2022-12-07T00:42:51.096Z,17.10
2022-12-07T00:43:01.143Z,16.80
2022-12-07T00:43:11.096Z,16.30
2022-12-07T00:43:21.094Z,17.10
2022-12-07T00:43:31.134Z,17.40
2022-12-07T00:43:41.091Z,18.30
2022-12-07T00:43:51.687Z,17.90
2022-12-07T00:44:01.156Z,17.40
2022-12-07T00:44:11.087Z,17.30
2022-12-07T00:44:21.264Z,17.70
2022-12-07T00:44:31.097Z,18.10
2022-12-07T00:44:41.098Z,18.10
2022-12-07T00:44:51.096Z,18.30
2022-12-07T00:45:01.089Z,18.10
2022-12-07T00:45:11.110Z,17.80
2022-12-07T00:45:21.227Z,17.20
2022-12-07T00:45:31.137Z,17.20
2022-12-07T00:45:41.171Z,17.80
2022-12-07T00:45:51.174Z,18.00
2022-12-07T00:46:01.157Z,18.40
2022-12-07T00:46:11.162Z,18.40
2022-12-07T00:46:21.200Z,18.90
2022-12-07T00:46:31.151Z,18.50
2022-12-07T00:46:41.199Z,18.30
2022-12-07T00:46:51.111Z,18.20
2022-12-07T00:47:01.095Z,18.50
2022-12-07T00:47:11.078Z,18.80
2022-12-07T00:47:21.110Z,18.70
2022-12-07T00:47:31.077Z,18.50
2022-12-07T00:47:41.621Z,18.60
2022-12-07T00:47:51.086Z,18.00
2022-12-07T00:48:01.093Z,17.80
2022-12-07T00:48:11.099Z,17.20
2022-12-07T00:48:21.120Z,18.10
2022-12-07T00:48:31.070Z,18.10
2022-12-07T00:48:41.101Z,18.50
2022-12-07T00:48:51.068Z,18.40
2022-12-07T00:49:01.090Z,19.30
2022-12-07T00:49:11.123Z,19.50
2022-12-07T00:49:21.638Z,18.80
2022-12-07T00:49:31.170Z,18.00
2022-12-07T00:49:41.067Z,17.50
2022-12-07T00:49:51.747Z,17.70
2022-12-07T00:50:01.567Z,17.70
2022-12-07T00:50:11.117Z,18.40
2022-12-07T00:50:21.070Z,18.40
2022-12-07T00:50:31.629Z,18.60
2022-12-07T00:50:41.112Z,17.90
2022-12-07T00:50:51.653Z,18.10
2022-12-07T00:51:01.068Z,18.10
2022-12-07T00:51:11.064Z,17.60
2022-12-07T00:51:21.062Z,17.50
2022-12-07T00:51:31.084Z,18.10
2022-12-07T00:51:41.058Z,18.80
2022-12-07T00:51:51.059Z,19.20
2022-12-07T00:52:01.105Z,19.30
2022-12-07T00:52:11.108Z,18.80
2022-12-07T00:52:21.271Z,18.10
2022-12-07T00:52:31.092Z,18.10
2022-12-07T00:52:41.063Z,19.10
2022-12-07T00:52:51.077Z,19.50
2022-12-07T00:53:01.098Z,19.40
2022-12-07T00:53:11.634Z,19.20
2022-12-07T00:53:21.064Z,19.50
2022-12-07T00:53:31.057Z,19.60
2022-12-07T00:53:42.252Z,19.20
2022-12-07T00:53:51.065Z,18.40
2022-12-07T00:54:01.058Z,17.80
2022-12-07T00:54:11.065Z,17.80
2022-12-07T00:54:21.163Z,18.60
2022-12-07T00:54:31.043Z,19.50
2022-12-07T00:54:41.055Z,19.30
2022-12-07T00:54:51.072Z,19.00
2022-12-07T00:55:01.635Z,18.90
2022-12-07T00:55:11.064Z,19.00
2022-12-07T00:55:21.075Z,19.10
2022-12-07T00:55:31.038Z,19.00
2022-12-07T00:55:41.051Z,19.10
2022-12-07T00:55:51.088Z,19.10
2022-12-07T00:56:01.038Z,19.10
2022-12-07T00:56:11.669Z,18.70
2022-12-07T00:56:21.078Z,18.90
2022-12-07T00:56:31.034Z,18.40
2022-12-07T00:56:41.045Z,18.80
2022-12-07T00:56:51.073Z,19.10
2022-12-07T00:57:01.032Z,18.70
2022-12-07T00:57:11.047Z,18.40
2022-12-07T00:57:21.030Z,17.90
2022-12-07T00:57:31.044Z,18.70
2022-12-07T00:57:41.057Z,19.30
2022-12-07T00:57:51.123Z,20.00
2022-12-07T00:58:01.027Z,19.20
2022-12-07T00:58:11.055Z,18.90
2022-12-07T00:58:21.033Z,18.20
2022-12-07T00:58:31.062Z,18.40
2022-12-07T00:58:41.063Z,18.20
2022-12-07T00:58:51.032Z,18.00
2022-12-07T00:59:01.034Z,18.20
2022-12-07T00:59:11.062Z,18.70
2022-12-07T00:59:21.032Z,19.20
2022-12-07T00:59:31.138Z,19.00
2022-12-07T00:59:41.031Z,18.50
2022-12-07T00:59:51.024Z,17.60
2022-12-07T01:00:01.380Z,17.90
2022-12-07T01:00:11.022Z,18.60
2022-12-07T01:00:21.047Z,19.60
2022-12-07T01:00:31.039Z,19.10
2022-12-07T01:00:41.624Z,18.50
2022-12-07T01:00:51.020Z,17.90
2022-12-07T01:01:01.253Z,18.60
2022-12-07T01:01:11.072Z,18.80
2022-12-07T01:01:21.064Z,19.00
2022-12-07T01:01:31.197Z,19.20
2022-12-07T01:01:41.133Z,19.00
2022-12-07T01:01:51.089Z,18.20
2022-12-07T01:02:01.627Z,18.60
2022-12-07T01:02:11.046Z,19.70
2022-12-07T01:02:21.015Z,21.00
2022-12-07T01:02:31.183Z,21.10
2022-12-07T01:02:41.010Z,20.50
2022-12-07T01:02:51.071Z,19.70
2022-12-07T01:03:01.064Z,18.90
2022-12-07T01:03:11.098Z,18.40
2022-12-07T01:03:21.725Z,18.80
2022-12-07T01:03:31.079Z,19.30
2022-12-07T01:03:41.025Z,19.80
2022-12-07T01:03:51.025Z,19.30
2022-12-07T01:04:01.001Z,19.10
2022-12-07T01:04:11.016Z,18.60
2022-12-07T01:04:21.059Z,18.20
2022-12-07T01:04:31.017Z,18.00
2022-12-07T01:04:41.099Z,18.10
2022-12-07T01:04:51.097Z,19.40
2022-12-07T01:05:01.007Z,19.40
2022-12-07T01:05:11.020Z,19.80
2022-12-07T01:05:21.002Z,19.40
2022-12-07T01:05:31.005Z,19.60
2022-12-07T01:05:41.008Z,19.60
2022-12-07T01:05:51.148Z,19.20
2022-12-07T01:06:01.001Z,19.40
2022-12-07T01:06:11.657Z,19.90
2022-12-07T01:06:21.156Z,20.00
2022-12-07T01:06:31.007Z,19.70
2022-12-07T01:06:41.008Z,19.40
2022-12-07T01:06:50.994Z,19.10
2022-12-07T01:07:00.999Z,19.20
2022-12-07T01:07:11.018Z,19.50
2022-12-07T01:07:20.987Z,19.80
2022-12-07T01:07:31.029Z,19.30
2022-12-07T01:07:41.198Z,19.20
2022-12-07T01:07:51.042Z,19.50
2022-12-07T01:08:01.062Z,20.00
2022-12-07T01:08:11.131Z,19.70
2022-12-07T01:08:21.169Z,20.10
2022-12-07T01:08:30.993Z,19.20
2022-12-07T01:08:40.991Z,19.10
2022-12-07T01:08:50.992Z,18.70
2022-12-07T01:09:01.648Z,19.40
2022-12-07T01:09:11.026Z,19.40
2022-12-07T01:09:20.985Z,19.20
2022-12-07T01:09:31.001Z,19.40
2022-12-07T01:09:40.991Z,19.30
2022-12-07T01:09:51.069Z,19.90
2022-12-07T01:10:01.887Z,19.60
2022-12-07T01:10:11.070Z,19.90
2022-12-07T01:10:20.993Z,19.30
2022-12-07T01:10:31.000Z,19.20
2022-12-07T01:10:40.978Z,18.90
2022-12-07T01:10:50.979Z,18.90
2022-12-07T01:11:01.010Z,19.30
2022-12-07T01:11:10.984Z,20.20
2022-12-07T01:11:20.985Z,21.00
2022-12-07T01:11:31.018Z,21.00
2022-12-07T01:11:40.980Z,20.40
2022-12-07T01:11:51.100Z,19.90
2022-12-07T01:12:01.012Z,19.50
2022-12-07T01:12:10.969Z,20.30
2022-12-07T01:12:20.982Z,20.30
2022-12-07T01:12:31.666Z,19.90
2022-12-07T01:12:40.975Z,19.30
2022-12-07T01:12:50.984Z,19.20
2022-12-07T01:13:00.970Z,19.70
2022-12-07T01:13:11.008Z,20.20
2022-12-07T01:13:20.990Z,20.70
2022-12-07T01:13:31.636Z,20.80
2022-12-07T01:13:40.985Z,20.00
2022-12-07T01:13:50.985Z,19.80
2022-12-07T01:14:00.965Z,20.30
2022-12-07T01:14:10.964Z,20.70
2022-12-07T01:14:20.989Z,20.30
2022-12-07T01:14:30.982Z,20.10
2022-12-07T01:14:41.174Z,19.60
2022-12-07T01:14:51.632Z,19.80
2022-12-07T01:15:01.066Z,19.30
2022-12-07T01:15:11.002Z,20.90
2022-12-07T01:15:21.005Z,21.50
2022-12-07T01:15:31.700Z,22.30
2022-12-07T01:15:41.071Z,21.70
2022-12-07T01:15:50.953Z,20.90
2022-12-07T01:16:01.020Z,20.70
2022-12-07T01:16:11.039Z,20.00
2022-12-07T01:16:21.023Z,20.10
2022-12-07T01:16:31.772Z,19.70
2022-12-07T01:16:41.056Z,21.00
2022-12-07T01:16:51.013Z,21.20
2022-12-07T01:17:00.999Z,20.50
2022-12-07T01:17:13.722Z,20.00
2022-12-07T01:17:21.638Z,19.60
2022-12-07T01:17:31.665Z,20.90
2022-12-07T01:17:40.986Z,20.80
2022-12-07T01:17:50.947Z,21.00
2022-12-07T01:18:00.957Z,20.60
2022-12-07T01:18:10.959Z,20.30
2022-12-07T01:18:20.954Z,20.30
2022-12-07T01:18:30.983Z,20.00
2022-12-07T01:18:41.003Z,20.10
2022-12-07T01:18:51.040Z,21.40
2022-12-07T01:19:00.960Z,20.90
2022-12-07T01:19:10.984Z,21.20
2022-12-07T01:19:20.950Z,19.60
2022-12-07T01:19:30.963Z,20.60
2022-12-07T01:19:40.942Z,19.40
2022-12-07T01:19:50.936Z,19.40
2022-12-07T01:20:01.198Z,20.00
2022-12-07T01:20:11.209Z,20.70
2022-12-07T01:20:20.939Z,21.50
2022-12-07T01:20:30.942Z,20.80
2022-12-07T01:20:41.674Z,21.10
2022-12-07T01:20:50.938Z,21.10
2022-12-07T01:21:00.974Z,21.10
2022-12-07T01:21:10.929Z,20.80
2022-12-07T01:21:20.965Z,21.20
2022-12-07T01:21:30.949Z,21.40
2022-12-07T01:21:40.930Z,21.70
2022-12-07T01:21:50.947Z,21.50
2022-12-07T01:22:00.980Z,21.20
2022-12-07T01:22:10.929Z,21.10
2022-12-07T01:22:20.949Z,20.80
2022-12-07T01:22:30.938Z,21.60
2022-12-07T01:22:40.928Z,21.40
2022-12-07T01:22:50.956Z,21.50
2022-12-07T01:23:01.019Z,21.30
2022-12-07T01:23:10.925Z,21.90
2022-12-07T01:23:20.930Z,22.20
2022-12-07T01:23:30.936Z,22.00
2022-12-07T01:23:40.926Z,21.10
2022-12-07T01:23:50.931Z,20.80
2022-12-07T01:24:00.925Z,20.50
2022-12-07T01:24:10.933Z,20.40
2022-12-07T01:24:22.138Z,20.80
2022-12-07T01:24:30.925Z,21.10
2022-12-07T01:24:40.934Z,21.60
2022-12-07T01:24:50.921Z,21.80
2022-12-07T01:25:00.918Z,21.50
2022-12-07T01:25:10.941Z,20.90
2022-12-07T01:25:21.079Z,20.30
2022-12-07T01:25:30.928Z,21.20
2022-12-07T01:25:40.935Z,21.20
2022-12-07T01:25:50.914Z,21.40
2022-12-07T01:26:00.928Z,21.20
2022-12-07T01:26:10.940Z,22.00
2022-12-07T01:26:20.920Z,21.60
2022-12-07T01:26:30.910Z,21.70
2022-12-07T01:26:40.942Z,20.80
2022-12-07T01:26:50.937Z,21.30
2022-12-07T01:27:00.933Z,21.30
2022-12-07T01:27:11.657Z,22.30
2022-12-07T01:27:20.916Z,21.70
2022-12-07T01:27:30.928Z,21.80
2022-12-07T01:27:40.979Z,21.90
2022-12-07T01:27:50.904Z,21.90
2022-12-07T01:28:00.930Z,22.00
2022-12-07T01:28:10.914Z,21.50
2022-12-07T01:28:20.920Z,21.40
2022-12-07T01:28:30.936Z,20.90
2022-12-07T01:28:40.921Z,21.60
2022-12-07T01:28:50.902Z,22.40
2022-12-07T01:29:00.903Z,22.30
2022-12-07T01:29:10.910Z,22.30
2022-12-07T01:29:20.894Z,21.70
2022-12-07T01:29:30.939Z,21.70
2022-12-07T01:29:40.895Z,21.40
2022-12-07T01:29:50.903Z,20.60
2022-12-07T01:30:01.498Z,20.60
2022-12-07T01:30:10.895Z,20.40
2022-12-07T01:30:20.944Z,21.10
2022-12-07T01:30:30.992Z,21.00
2022-12-07T01:30:40.902Z,20.70
2022-12-07T01:30:50.984Z,21.20
2022-12-07T01:31:01.073Z,22.50
2022-12-07T01:31:11.828Z,22.60
2022-12-07T01:31:21.798Z,21.60
2022-12-07T01:31:30.895Z,20.60
2022-12-07T01:31:40.896Z,21.70
2022-12-07T01:31:50.900Z,22.20
2022-12-07T01:32:01.651Z,21.70
2022-12-07T01:32:10.893Z,21.50
2022-12-07T01:32:20.932Z,21.70
2022-12-07T01:32:30.886Z,21.60
2022-12-07T01:32:40.904Z,21.20
2022-12-07T01:32:51.018Z,21.30
2022-12-07T01:33:00.880Z,20.90
2022-12-07T01:33:10.882Z,21.00
2022-12-07T01:33:20.888Z,20.50
2022-12-07T01:33:30.883Z,21.20
2022-12-07T01:33:40.889Z,22.00
2022-12-07T01:33:50.900Z,22.20
2022-12-07T01:34:00.896Z,22.30
2022-12-07T01:34:10.992Z,22.20
2022-12-07T01:34:20.880Z,22.20
2022-12-07T01:34:30.880Z,22.00
2022-12-07T01:34:40.895Z,21.70
2022-12-07T01:34:50.934Z,21.30
2022-12-07T01:35:01.070Z,22.00
2022-12-07T01:35:10.874Z,21.60
2022-12-07T01:35:20.873Z,22.50
2022-12-07T01:35:31.633Z,21.80
2022-12-07T01:35:41.020Z,23.10
2022-12-07T01:35:50.884Z,22.40
2022-12-07T01:36:00.875Z,22.30
2022-12-07T01:36:11.644Z,22.00
2022-12-07T01:36:20.864Z,23.00
2022-12-07T01:36:31.636Z,23.30
2022-12-07T01:36:40.879Z,23.00
2022-12-07T01:36:51.661Z,23.10
2022-12-07T01:37:00.990Z,22.50
2022-12-07T01:37:10.882Z,22.20
2022-12-07T01:37:20.885Z,21.10
2022-12-07T01:37:30.877Z,21.80
2022-12-07T01:37:40.864Z,21.80
2022-12-07T01:37:50.868Z,23.30
2022-12-07T01:38:00.881Z,23.20
2022-12-07T01:38:10.868Z,23.50
2022-12-07T01:38:21.650Z,22.60
2022-12-07T01:38:30.889Z,22.50
2022-12-07T01:38:40.862Z,21.50
2022-12-07T01:38:51.727Z,22.00
2022-12-07T01:39:00.884Z,22.40
2022-12-07T01:39:10.854Z,22.90
2022-12-07T01:39:20.966Z,21.80
2022-12-07T01:39:30.863Z,21.20
2022-12-07T01:39:40.898Z,21.40
2022-12-07T01:39:50.867Z,22.30
2022-12-07T01:40:01.256Z,23.20
2022-12-07T01:40:10.856Z,23.30
2022-12-07T01:40:20.881Z,23.80
2022-12-07T01:40:30.849Z,23.60
2022-12-07T01:40:40.852Z,23.80
2022-12-07T01:40:50.894Z,23.40
2022-12-07T01:41:00.852Z,23.10
2022-12-07T01:41:11.016Z,23.20
2022-12-07T01:41:20.888Z,22.30
2022-12-07T01:41:30.853Z,21.90
2022-12-07T01:41:40.843Z,20.90
2022-12-07T01:41:50.902Z,21.10
2022-12-07T01:42:00.851Z,21.80
2022-12-07T01:42:10.847Z,23.10
2022-12-07T01:42:20.932Z,23.80
2022-12-07T01:42:30.864Z,23.60
2022-12-07T01:42:40.855Z,22.80
2022-12-07T01:42:50.856Z,22.90
2022-12-07T01:43:01.639Z,22.40
2022-12-07T01:43:10.951Z,22.70
2022-12-07T01:43:20.846Z,22.30
2022-12-07T01:43:30.856Z,22.60
2022-12-07T01:43:40.853Z,22.70
2022-12-07T01:43:50.889Z,23.20
2022-12-07T01:44:01.075Z,23.20
2022-12-07T01:44:10.851Z,22.30
2022-12-07T01:44:20.849Z,21.40
2022-12-07T01:44:30.838Z,21.40
2022-12-07T01:44:40.857Z,22.00
2022-12-07T01:44:50.851Z,22.30
2022-12-07T01:45:00.847Z,22.00
2022-12-07T01:45:10.862Z,22.40
2022-12-07T01:45:21.639Z,22.70
2022-12-07T01:45:31.608Z,23.30
2022-12-07T01:45:40.849Z,23.20
2022-12-07T01:45:50.913Z,23.50
2022-12-07T01:46:00.947Z,23.40
2022-12-07T01:46:10.869Z,23.20
2022-12-07T01:46:20.859Z,22.50
2022-12-07T01:46:30.984Z,22.00
2022-12-07T01:46:40.882Z,21.40
2022-12-07T01:46:50.833Z,21.90
2022-12-07T01:47:00.844Z,21.60
2022-12-07T01:47:10.855Z,22.20
2022-12-07T01:47:20.826Z,21.30
2022-12-07T01:47:30.933Z,21.80
2022-12-07T01:47:40.888Z,22.10
2022-12-07T01:47:50.824Z,23.30
2022-12-07T01:48:00.840Z,23.20
2022-12-07T01:48:11.009Z,22.30
2022-12-07T01:48:20.830Z,21.70
2022-12-07T01:48:30.854Z,22.00
2022-12-07T01:48:40.860Z,22.90
2022-12-07T01:48:50.825Z,23.20
2022-12-07T01:49:00.844Z,23.10
2022-12-07T01:49:10.819Z,23.00
2022-12-07T01:49:20.838Z,22.90
2022-12-07T01:49:30.862Z,23.50
2022-12-07T01:49:40.848Z,22.20
2022-12-07T01:49:51.657Z,21.30
2022-12-07T01:50:01.280Z,20.60
2022-12-07T01:50:10.810Z,21.40
2022-12-07T01:50:20.825Z,22.80
2022-12-07T01:50:30.818Z,22.20
2022-12-07T01:50:40.811Z,22.10
2022-12-07T01:50:50.847Z,20.90
2022-12-07T01:51:00.948Z,21.40
2022-12-07T01:51:10.863Z,21.90
2022-12-07T01:51:21.647Z,22.60
2022-12-07T01:51:30.806Z,22.10
2022-12-07T01:51:40.813Z,22.30
2022-12-07T01:51:50.817Z,21.40
2022-12-07T01:52:00.850Z,21.80
2022-12-07T01:52:10.816Z,20.70
2022-12-07T01:52:21.640Z,20.90
2022-12-07T01:52:30.801Z,20.50
2022-12-07T01:52:40.811Z,21.30
2022-12-07T01:52:50.805Z,21.40
2022-12-07T01:53:00.801Z,21.90
2022-12-07T01:53:10.816Z,21.80
2022-12-07T01:53:20.796Z,22.00
2022-12-07T01:53:30.800Z,21.80
2022-12-07T01:53:40.816Z,22.20
2022-12-07T01:53:50.798Z,22.30
2022-12-07T01:54:00.793Z,23.20
2022-12-07T01:54:10.834Z,22.60
2022-12-07T01:54:20.803Z,22.30
2022-12-07T01:54:30.806Z,21.50
2022-12-07T01:54:40.823Z,22.10
2022-12-07T01:54:50.835Z,22.80
2022-12-07T01:55:00.799Z,22.80
2022-12-07T01:55:10.872Z,22.60
2022-12-07T01:55:21.728Z,21.80
2022-12-07T01:55:30.804Z,22.20
2022-12-07T01:55:40.881Z,22.30
2022-12-07T01:55:51.796Z,22.50
2022-12-07T01:56:00.789Z,22.60
2022-12-07T01:56:10.789Z,22.30
2022-12-07T01:56:20.865Z,23.10
2022-12-07T01:56:31.656Z,23.00
2022-12-07T01:56:40.793Z,23.70
2022-12-07T01:56:50.782Z,23.20
2022-12-07T01:57:00.797Z,23.50
2022-12-07T01:57:10.800Z,22.80
2022-12-07T01:57:20.788Z,22.70
2022-12-07T01:57:30.811Z,22.40
2022-12-07T01:57:40.850Z,22.50
2022-12-07T01:57:50.816Z,22.30
2022-12-07T01:58:00.971Z,21.80
2022-12-07T01:58:10.780Z,21.70
2022-12-07T01:58:20.790Z,22.30
2022-12-07T01:58:30.785Z,22.80
2022-12-07T01:58:40.771Z,23.10
2022-12-07T01:58:50.789Z,21.80
2022-12-07T01:59:01.648Z,20.80
2022-12-07T01:59:10.784Z,20.60
2022-12-07T01:59:23.687Z,21.40
2022-12-07T01:59:30.822Z,21.80
2022-12-07T01:59:40.777Z,21.00
2022-12-07T01:59:50.783Z,19.90
2022-12-07T02:00:01.066Z,19.80
2022-12-07T02:00:10.769Z,20.50
2022-12-07T02:00:20.803Z,21.10
2022-12-07T02:00:30.788Z,21.30
2022-12-07T02:00:40.777Z,20.90
2022-12-07T02:00:50.775Z,21.40
2022-12-07T02:01:00.912Z,21.10
2022-12-07T02:01:10.875Z,21.80
2022-12-07T02:01:21.699Z,21.70
2022-12-07T02:01:30.920Z,21.30
2022-12-07T02:01:40.857Z,21.70
2022-12-07T02:01:50.852Z,21.70
2022-12-07T02:02:00.840Z,22.10
2022-12-07T02:02:10.954Z,21.60
2022-12-07T02:02:20.925Z,21.80
2022-12-07T02:02:30.810Z,21.70
2022-12-07T02:02:40.871Z,20.50
2022-12-07T02:02:50.838Z,20.50
2022-12-07T02:03:00.876Z,20.90
2022-12-07T02:03:11.675Z,21.10
2022-12-07T02:03:20.764Z,20.50
2022-12-07T02:03:31.674Z,20.60
2022-12-07T02:03:41.819Z,21.00
2022-12-07T02:03:50.758Z,21.70
2022-12-07T02:04:00.764Z,21.50
2022-12-07T02:04:10.783Z,21.40
2022-12-07T02:04:20.760Z,21.10
2022-12-07T02:04:30.759Z,20.60
2022-12-07T02:04:40.765Z,20.50
2022-12-07T02:04:50.750Z,20.20
2022-12-07T02:05:01.645Z,20.00
2022-12-07T02:05:10.744Z,20.10
2022-12-07T02:05:20.744Z,20.90
2022-12-07T02:05:30.763Z,20.80
2022-12-07T02:05:40.759Z,19.80
2022-12-07T02:05:50.761Z,17.60
2022-12-07T02:06:00.739Z,17.00
2022-12-07T02:06:10.739Z,17.20
2022-12-07T02:06:21.652Z,18.40
2022-12-07T02:06:30.780Z,19.10
2022-12-07T02:06:40.780Z,20.30
2022-12-07T02:06:50.763Z,20.30
2022-12-07T02:07:00.748Z,20.30
2022-12-07T02:07:11.660Z,20.30
2022-12-07T02:07:20.742Z,20.10
2022-12-07T02:07:30.755Z,19.40
2022-12-07T02:07:41.718Z,19.20
2022-12-07T02:07:50.819Z,19.60
2022-12-07T02:08:00.830Z,20.00
2022-12-07T02:08:10.816Z,19.60
2022-12-07T02:08:20.850Z,19.80
2022-12-07T02:08:30.746Z,20.60
2022-12-07T02:08:40.738Z,21.10